Time;durP1;ratioP1;P1;durP2;ratioP2;P2;SDS_P1;SDS_P2;PMS_P1;PMS_P2;Temp;Humidity;BMP_temperature;BMP_pressure;BME280_temperature;BME280_humidity;BME280_pressure;Samples;Min_cycle;Max_cycle;Signal;HPM_P1;HPM_P2
2022/09/17 00:00:57;;;;;;;;;;;19.70;56.10;;;;;;5074236;28;20245;-67
2022/09/17 00:03:24;;;;;;;;;;;19.70;56.00;;;;;;5074319;28;19966;-67
2022/09/17 00:05:57;;;;;;;;;;;19.70;56.00;;;;;;5074256;28;19920;-66
2022/09/17 00:08:22;;;;;;;;;;;19.70;56.00;;;;;;5092397;28;20187;-67
2022/09/17 00:10:48;;;;;;;;;;;19.70;56.00;;;;;;5074521;28;20185;-67
2022/09/17 00:13:13;;;;;;;;;;;19.60;56.00;;;;;;5092626;28;20292;-67
2022/09/17 00:15:43;;;;;;;;;;;19.70;56.00;;;;;;5092512;28;20386;-67
2022/09/17 00:18:09;;;;;;;;;;;19.70;56.00;;;;;;5074550;28;19951;-66
2022/09/17 00:20:38;;;;;;;;;;;19.70;56.00;;;;;;5074273;28;19966;-66
2022/09/17 00:23:04;;;;;;;;;;;19.70;56.00;;;;;;5075929;28;19927;-67
2022/09/17 00:25:30;;;;;;;;;;;19.60;55.90;;;;;;5078317;28;19920;-66
2022/09/17 00:27:55;;;;;;;;;;;19.70;56.00;;;;;;5078449;28;20267;-67
2022/09/17 00:30:21;;;;;;;;;;;19.60;55.90;;;;;;5096290;28;19916;-66
2022/09/17 00:32:46;;;;;;;;;;;19.70;55.90;;;;;;5078378;28;19920;-67
2022/09/17 00:35:12;;;;;;;;;;;19.60;55.90;;;;;;5077977;28;20205;-66
2022/09/17 00:37:37;;;;;;;;;;;19.60;55.90;;;;;;5078129;28;19916;-67
2022/09/17 00:40:03;;;;;;;;;;;19.60;55.80;;;;;;5094677;28;19920;-66
2022/09/17 00:42:29;;;;;;;;;;;19.60;55.80;;;;;;5077834;28;19981;-66
2022/09/17 00:44:55;;;;;;;;;;;19.60;55.80;;;;;;5096308;28;19956;-67
2022/09/17 00:50:12;;;;;;;;;;;19.60;55.90;;;;;;5089916;28;19913;-66
2022/09/17 00:52:40;;;;;;;;;;;19.60;55.80;;;;;;5088306;28;19970;-66
2022/09/17 00:55:12;;;;;;;;;;;19.60;55.80;;;;;;5088765;28;20011;-67
2022/09/17 00:57:39;;;;;;;;;;;19.60;55.80;;;;;;5088343;28;19920;-66
2022/09/17 01:00:06;;;;;;;;;;;19.60;55.80;;;;;;5105595;28;19921;-67
2022/09/17 01:02:32;;;;;;;;;;;19.60;55.80;;;;;;5088346;28;19921;-67
2022/09/17 01:04:58;;;;;;;;;;;19.50;55.70;;;;;;5088278;28;19920;-67
2022/09/17 01:07:33;;;;;;;;;;;19.60;55.70;;;;;;5088325;28;19920;-67
2022/09/17 01:15:49;;;;;;;;;;;19.50;55.70;;;;;;5110207;27;19913;-67
2022/09/17 01:18:21;;;;;;;;;;;19.50;55.70;;;;;;5110224;28;19962;-67
2022/09/17 01:23:44;;;;;;;;;;;19.50;55.70;;;;;;5089931;28;19908;-67
2022/09/17 01:26:28;;;;;;;;;;;19.50;55.70;;;;;;5088563;28;19920;-66
2022/09/17 01:29:14;;;;;;;;;;;19.50;55.70;;;;;;5088767;28;20008;-66
2022/09/17 01:37:30;;;;;;;;;;;19.50;55.60;;;;;;5110184;27;19912;-67
2022/09/17 01:45:37;;;;;;;;;;;19.50;55.60;;;;;;5089900;28;19912;-66
2022/09/17 01:48:13;;;;;;;;;;;19.50;55.60;;;;;;5088618;28;20011;-66
2022/09/17 01:50:43;;;;;;;;;;;19.50;55.60;;;;;;5088543;28;19927;-66
2022/09/17 01:53:09;;;;;;;;;;;19.50;55.60;;;;;;5088728;28;19971;-66
2022/09/17 01:55:36;;;;;;;;;;;19.50;55.60;;;;;;5088633;28;19920;-67
2022/09/17 01:58:06;;;;;;;;;;;19.50;55.60;;;;;;5088655;28;19923;-66
2022/09/17 02:00:32;;;;;;;;;;;19.50;55.60;;;;;;5088397;28;20437;-67
2022/09/17 02:03:01;;;;;;;;;;;19.50;55.60;;;;;;5089587;28;19920;-67
2022/09/17 02:05:29;;;;;;;;;;;19.40;55.60;;;;;;5088497;28;20299;-67
2022/09/17 02:07:58;;;;;;;;;;;19.40;55.60;;;;;;5088229;28;19935;-67
2022/09/17 02:10:28;;;;;;;;;;;19.40;55.60;;;;;;5088301;28;19927;-67
2022/09/17 02:13:04;;;;;;;;;;;19.40;55.60;;;;;;5088445;28;19924;-67
2022/09/17 02:15:32;;;;;;;;;;;19.40;55.60;;;;;;5087922;28;19966;-66
2022/09/17 02:18:01;;;;;;;;;;;19.40;55.60;;;;;;5088328;28;20356;-67
2022/09/17 02:20:34;;;;;;;;;;;19.40;55.60;;;;;;5089390;28;19946;-66
2022/09/17 02:23:01;;;;;;;;;;;19.40;55.60;;;;;;5088170;28;19920;-66
2022/09/17 02:25:47;;;;;;;;;;;19.40;55.50;;;;;;5089100;28;20017;-66
2022/09/17 02:28:17;;;;;;;;;;;19.40;55.60;;;;;;5087974;28;19917;-66
2022/09/17 02:30:43;;;;;;;;;;;19.40;55.60;;;;;;5087661;28;19924;-67
2022/09/17 02:33:10;;;;;;;;;;;19.40;55.60;;;;;;5089320;28;19921;-67
2022/09/17 02:35:37;;;;;;;;;;;19.30;55.50;;;;;;5088846;28;20413;-67
2022/09/17 02:38:03;;;;;;;;;;;19.40;55.50;;;;;;5088959;28;19927;-67
2022/09/17 02:40:32;;;;;;;;;;;19.40;55.60;;;;;;5088983;28;20357;-67
2022/09/17 02:43:07;;;;;;;;;;;19.40;55.60;;;;;;5087840;28;19999;-67
2022/09/17 02:45:45;;;;;;;;;;;19.40;55.60;;;;;;5087760;28;19925;-66
2022/09/17 02:53:55;;;;;;;;;;;19.30;56.20;;;;;;5110243;27;19913;-67
2022/09/17 02:56:44;;;;;;;;;;;19.30;55.40;;;;;;5108655;28;20391;-67
2022/09/17 03:02:01;;;;;;;;;;;19.30;55.50;;;;;;5089850;28;19913;-66
2022/09/17 03:04:28;;;;;;;;;;;19.30;55.60;;;;;;5088859;28;19969;-67
2022/09/17 03:06:54;;;;;;;;;;;19.30;56.20;;;;;;5088341;28;19931;-67
2022/09/17 03:09:19;;;;;;;;;;;19.30;55.40;;;;;;5088695;28;19920;-67
2022/09/17 03:11:45;;;;;;;;;;;19.30;55.50;;;;;;5089812;28;20295;-66
2022/09/17 03:14:11;;;;;;;;;;;19.30;55.40;;;;;;5088404;28;19959;-66
2022/09/17 03:16:36;;;;;;;;;;;19.30;55.40;;;;;;5088474;28;19921;-66
2022/09/17 03:19:02;;;;;;;;;;;19.30;55.40;;;;;;5088333;28;19927;-66
2022/09/17 03:21:27;;;;;;;;;;;19.30;55.40;;;;;;5088098;28;19920;-66
2022/09/17 03:23:53;;;;;;;;;;;19.30;55.40;;;;;;5089460;28;19972;-66
2022/09/17 03:26:18;;;;;;;;;;;19.30;55.40;;;;;;5088434;28;19924;-66
2022/09/17 03:28:44;;;;;;;;;;;19.20;55.30;;;;;;5088414;28;20288;-66
2022/09/17 03:31:09;;;;;;;;;;;19.20;55.30;;;;;;5088279;28;20390;-67
2022/09/17 03:33:35;;;;;;;;;;;19.30;55.40;;;;;;5088330;28;19920;-67
2022/09/17 03:36:01;;;;;;;;;;;19.30;55.40;;;;;;5088020;28;19970;-66
2022/09/17 03:38:26;;;;;;;;;;;19.20;55.30;;;;;;5089079;28;20011;-66
2022/09/17 03:41:00;;;;;;;;;;;19.30;55.40;;;;;;5088972;28;19928;-66
2022/09/17 03:43:26;;;;;;;;;;;19.20;55.30;;;;;;5089366;28;19920;-67
2022/09/17 03:45:51;;;;;;;;;;;19.20;55.30;;;;;;5088144;28;20478;-66
2022/09/17 03:48:17;;;;;;;;;;;19.30;55.40;;;;;;5088973;28;20346;-67
2022/09/17 03:50:42;;;;;;;;;;;19.20;55.30;;;;;;5088035;28;20528;-66
2022/09/17 03:53:08;;;;;;;;;;;19.20;55.30;;;;;;5088756;28;19920;-67
2022/09/17 03:55:36;;;;;;;;;;;19.20;55.30;;;;;;5087868;28;19924;-67
2022/09/17 03:58:01;;;;;;;;;;;19.20;55.30;;;;;;5088732;28;19975;-66
2022/09/17 04:00:27;;;;;;;;;;;19.20;55.30;;;;;;5087304;28;19963;-66
2022/09/17 04:02:52;;;;;;;;;;;19.20;55.30;;;;;;5088777;28;19999;-66
2022/09/17 04:05:18;;;;;;;;;;;19.20;55.30;;;;;;5087776;28;20383;-66
2022/09/17 04:07:44;;;;;;;;;;;19.10;55.20;;;;;;5104323;28;19920;-66
2022/09/17 04:10:09;;;;;;;;;;;19.20;55.30;;;;;;5087372;28;20003;-66
2022/09/17 04:12:35;;;;;;;;;;;19.20;55.30;;;;;;5077108;28;20011;-67
2022/09/17 04:15:00;;;;;;;;;;;19.20;55.30;;;;;;5075038;28;19928;-66
2022/09/17 04:17:26;;;;;;;;;;;19.20;55.30;;;;;;5073740;28;19920;-67
2022/09/17 04:19:52;;;;;;;;;;;19.20;55.30;;;;;;5074840;28;19947;-66
2022/09/17 04:22:18;;;;;;;;;;;19.20;55.30;;;;;;5074912;28;19920;-66
2022/09/17 04:24:43;;;;;;;;;;;19.20;55.30;;;;;;5073386;28;20405;-66
2022/09/17 04:27:11;;;;;;;;;;;19.20;55.30;;;;;;5074998;28;19932;-67
2022/09/17 04:29:37;;;;;;;;;;;19.10;55.30;;;;;;5074842;28;20208;-66
2022/09/17 04:32:03;;;;;;;;;;;19.10;55.20;;;;;;5073674;28;19924;-67
2022/09/17 04:34:28;;;;;;;;;;;19.20;55.30;;;;;;5074708;28;20344;-66
2022/09/17 04:36:54;;;;;;;;;;;19.10;55.30;;;;;;5073541;28;19931;-67
2022/09/17 04:39:19;;;;;;;;;;;19.10;55.30;;;;;;5074432;28;20276;-67
2022/09/17 04:41:45;;;;;;;;;;;19.10;55.20;;;;;;5073155;28;19951;-66
2022/09/17 04:44:10;;;;;;;;;;;19.10;55.30;;;;;;5073442;28;20406;-66
2022/09/17 04:46:36;;;;;;;;;;;19.10;55.30;;;;;;5073100;28;20328;-66
2022/09/17 04:49:01;;;;;;;;;;;19.10;55.20;;;;;;5074603;28;19920;-66
2022/09/17 04:51:27;;;;;;;;;;;19.10;55.30;;;;;;5073288;28;20023;-67
2022/09/17 04:53:52;;;;;;;;;;;19.10;55.30;;;;;;5073303;28;19960;-67
2022/09/17 04:56:18;;;;;;;;;;;19.10;55.20;;;;;;5074114;28;20012;-66
2022/09/17 04:58:43;;;;;;;;;;;19.10;55.20;;;;;;5072930;28;19950;-66
2022/09/17 05:01:09;;;;;;;;;;;19.10;55.20;;;;;;5088395;28;19924;-67
2022/09/17 05:03:34;;;;;;;;;;;19.10;56.00;;;;;;5076432;28;19920;-66
2022/09/17 05:06:00;;;;;;;;;;;19.10;55.30;;;;;;5076201;28;20378;-66
2022/09/17 05:08:26;;;;;;;;;;;19.10;55.30;;;;;;5094497;28;19916;-66
2022/09/17 05:10:51;;;;;;;;;;;19.10;55.30;;;;;;5076263;28;19916;-67
2022/09/17 05:13:17;;;;;;;;;;;19.10;55.30;;;;;;5076139;28;20285;-67
2022/09/17 05:15:43;;;;;;;;;;;19.10;55.30;;;;;;5075915;28;19964;-67
2022/09/17 05:18:09;;;;;;;;;;;19.10;55.30;;;;;;5076203;28;19916;-67
2022/09/17 05:20:35;;;;;;;;;;;19.00;55.20;;;;;;5075956;28;19973;-67
2022/09/17 05:23:00;;;;;;;;;;;19.00;55.20;;;;;;5075244;28;20368;-67
2022/09/17 05:25:26;;;;;;;;;;;19.00;55.20;;;;;;5093575;28;19923;-67
2022/09/17 05:27:52;;;;;;;;;;;19.00;55.20;;;;;;5093709;28;19961;-66
2022/09/17 05:30:18;;;;;;;;;;;19.00;55.20;;;;;;5075885;28;19924;-66
2022/09/17 05:32:43;;;;;;;;;;;19.00;55.20;;;;;;5093847;28;20460;-66
2022/09/17 05:35:09;;;;;;;;;;;19.00;55.20;;;;;;5075609;28;19916;-67
2022/09/17 05:37:35;;;;;;;;;;;19.00;55.20;;;;;;5093592;28;19920;-67
2022/09/17 05:40:02;;;;;;;;;;;19.00;55.20;;;;;;5092476;28;19924;-67
2022/09/17 05:42:27;;;;;;;;;;;19.00;55.20;;;;;;5093328;28;19927;-67
2022/09/17 05:44:53;;;;;;;;;;;19.00;55.20;;;;;;5075711;28;19921;-66
2022/09/17 05:47:18;;;;;;;;;;;19.00;55.20;;;;;;5075495;28;19924;-66
2022/09/17 05:49:44;;;;;;;;;;;19.00;55.20;;;;;;5093755;28;20396;-67
2022/09/17 05:52:09;;;;;;;;;;;19.00;55.20;;;;;;5075149;28;19920;-66
2022/09/17 05:54:35;;;;;;;;;;;19.00;55.20;;;;;;5075514;28;19927;-67
2022/09/17 05:57:00;;;;;;;;;;;19.00;55.20;;;;;;5093198;28;20434;-66
2022/09/17 05:59:26;;;;;;;;;;;19.00;55.20;;;;;;5075060;28;19930;-66
2022/09/17 06:01:52;;;;;;;;;;;18.90;55.20;;;;;;5075241;28;19924;-66
2022/09/17 06:04:17;;;;;;;;;;;19.00;55.20;;;;;;5093161;28;20355;-67
2022/09/17 06:06:43;;;;;;;;;;;19.00;55.20;;;;;;5074913;28;19927;-66
2022/09/17 06:09:09;;;;;;;;;;;18.90;55.10;;;;;;5075360;28;19916;-67
2022/09/17 06:11:35;;;;;;;;;;;18.90;55.10;;;;;;5093076;28;20317;-67
2022/09/17 06:14:01;;;;;;;;;;;18.90;55.10;;;;;;5093006;28;19937;-67
2022/09/17 06:16:26;;;;;;;;;;;18.90;55.10;;;;;;5093376;28;19946;-67
2022/09/17 06:18:52;;;;;;;;;;;18.90;55.10;;;;;;5092967;28;19962;-67
2022/09/17 06:21:18;;;;;;;;;;;18.90;55.10;;;;;;5074819;28;19922;-67
2022/09/17 06:23:44;;;;;;;;;;;18.90;55.10;;;;;;5092837;28;19924;-66
2022/09/17 06:26:10;;;;;;;;;;;18.90;55.20;;;;;;5093209;28;20293;-67
2022/09/17 06:28:35;;;;;;;;;;;18.90;55.10;;;;;;5091618;28;19916;-67
2022/09/17 06:31:02;;;;;;;;;;;18.90;55.10;;;;;;5074672;28;19962;-66
2022/09/17 06:33:29;;;;;;;;;;;18.90;55.10;;;;;;5074902;28;20377;-67
2022/09/17 06:35:59;;;;;;;;;;;18.90;55.10;;;;;;5075151;28;19994;-66
2022/09/17 06:38:25;;;;;;;;;;;18.90;55.20;;;;;;5074509;28;19916;-67
2022/09/17 06:40:51;;;;;;;;;;;18.90;55.10;;;;;;5092587;28;19967;-66
2022/09/17 06:43:16;;;;;;;;;;;18.90;55.10;;;;;;5092429;28;19993;-66
2022/09/17 06:45:42;;;;;;;;;;;18.90;55.10;;;;;;5074459;28;20011;-67
2022/09/17 06:48:08;;;;;;;;;;;18.90;55.10;;;;;;5092719;28;20018;-66
2022/09/17 06:50:33;;;;;;;;;;;18.90;55.10;;;;;;5074785;28;20356;-66
2022/09/17 06:52:59;;;;;;;;;;;18.90;55.10;;;;;;5074255;28;20517;-67
2022/09/17 06:55:25;;;;;;;;;;;18.90;55.10;;;;;;5074713;28;19936;-66
2022/09/17 06:57:50;;;;;;;;;;;18.90;55.10;;;;;;5074330;28;19926;-67
2022/09/17 07:00:16;;;;;;;;;;;18.80;55.00;;;;;;5091890;28;19924;-66
2022/09/17 07:02:42;;;;;;;;;;;18.80;55.10;;;;;;5074535;28;20376;-67
2022/09/17 07:05:07;;;;;;;;;;;18.90;55.10;;;;;;5074397;28;19924;-66
2022/09/17 07:07:34;;;;;;;;;;;18.80;55.10;;;;;;5074254;28;20292;-66
2022/09/17 07:10:00;;;;;;;;;;;18.80;55.00;;;;;;5074152;28;19921;-66
2022/09/17 07:12:26;;;;;;;;;;;18.80;55.00;;;;;;5092237;28;19943;-66
2022/09/17 07:14:51;;;;;;;;;;;18.80;55.10;;;;;;5092075;28;20367;-66
2022/09/17 07:17:17;;;;;;;;;;;18.80;55.10;;;;;;5092377;28;20326;-67
2022/09/17 07:19:42;;;;;;;;;;;18.80;55.00;;;;;;5074207;28;20360;-66
2022/09/17 07:22:08;;;;;;;;;;;18.80;55.00;;;;;;5092391;28;19973;-67
2022/09/17 07:24:33;;;;;;;;;;;18.80;55.00;;;;;;5092076;28;19924;-66
2022/09/17 07:26:59;;;;;;;;;;;18.80;55.00;;;;;;5073925;28;20007;-66
2022/09/17 07:29:26;;;;;;;;;;;18.80;55.00;;;;;;5073870;28;19924;-66
2022/09/17 07:31:52;;;;;;;;;;;18.80;55.00;;;;;;5074207;28;19939;-67
2022/09/17 07:34:17;;;;;;;;;;;18.80;55.00;;;;;;5092194;28;19920;-66
2022/09/17 07:36:43;;;;;;;;;;;18.80;55.10;;;;;;5073865;28;20383;-67
2022/09/17 07:39:10;;;;;;;;;;;18.80;55.00;;;;;;5091968;28;20174;-66
2022/09/17 07:41:36;;;;;;;;;;;18.80;55.00;;;;;;5073720;28;19924;-67
2022/09/17 07:44:01;;;;;;;;;;;18.80;55.00;;;;;;5092259;28;19969;-66
2022/09/17 07:46:27;;;;;;;;;;;18.80;55.10;;;;;;5074217;28;20331;-66
2022/09/17 07:48:52;;;;;;;;;;;18.80;55.00;;;;;;5077599;28;19962;-66
2022/09/17 07:51:20;;;;;;;;;;;18.80;55.00;;;;;;5095968;28;19920;-66
2022/09/17 07:53:46;;;;;;;;;;;18.80;55.00;;;;;;5095777;28;20366;-67
2022/09/17 07:56:12;;;;;;;;;;;18.80;55.00;;;;;;5077769;28;19923;-66
2022/09/17 07:58:38;;;;;;;;;;;18.80;55.00;;;;;;5077611;28;19919;-67
2022/09/17 08:01:05;;;;;;;;;;;18.80;55.00;;;;;;5094973;28;20024;-66
2022/09/17 08:03:31;;;;;;;;;;;18.80;55.80;;;;;;5095599;28;20340;-67
2022/09/17 08:06:13;;;;;;;;;;;18.80;55.00;;;;;;5095332;28;20007;-67
2022/09/17 08:08:39;;;;;;;;;;;18.80;55.00;;;;;;5077528;28;19923;-66
2022/09/17 08:11:06;;;;;;;;;;;18.70;54.90;;;;;;5095328;28;20287;-66
2022/09/17 08:13:32;;;;;;;;;;;18.70;54.90;;;;;;5095567;28;19916;-66
2022/09/17 08:16:02;;;;;;;;;;;18.80;55.00;;;;;;5094189;28;19920;-66
2022/09/17 08:18:28;;;;;;;;;;;18.70;54.90;;;;;;5095121;28;19974;-67
2022/09/17 08:20:56;;;;;;;;;;;18.80;54.90;;;;;;5076904;28;19932;-66
2022/09/17 08:23:21;;;;;;;;;;;18.70;54.90;;;;;;5076861;28;20015;-67
2022/09/17 08:25:51;;;;;;;;;;;18.70;54.90;;;;;;5095057;28;20011;-67
2022/09/17 08:28:16;;;;;;;;;;;18.70;54.90;;;;;;5074806;28;19920;-66
2022/09/17 08:30:42;;;;;;;;;;;18.70;54.90;;;;;;5094585;28;19920;-73
2022/09/17 08:33:07;;;;;;;;;;;18.80;55.10;;;;;;5094433;28;20299;-68
2022/09/17 08:35:33;;;;;;;;;;;18.70;55.00;;;;;;5094890;28;19925;-68
2022/09/17 08:37:58;;;;;;;;;;;18.80;55.20;;;;;;5076691;28;19916;-67
2022/09/17 08:40:27;;;;;;;;;;;18.90;55.20;;;;;;5094590;28;20008;-70
2022/09/17 08:42:55;;;;;;;;;;;18.90;55.20;;;;;;5076664;28;19971;-69
2022/09/17 08:45:21;;;;;;;;;;;18.90;55.10;;;;;;5094583;28;19923;-69
2022/09/17 08:47:47;;;;;;;;;;;18.90;55.10;;;;;;5094326;28;20441;-69
2022/09/17 08:50:14;;;;;;;;;;;18.90;55.00;;;;;;5076237;28;19923;-69
2022/09/17 08:55:30;;;;;;;;;;;19.00;55.20;;;;;;5110274;27;19912;-70
2022/09/17 08:58:03;;;;;;;;;;;19.00;55.20;;;;;;5106475;28;20329;-69
2022/09/17 09:00:38;;;;;;;;;;;19.00;55.20;;;;;;5105710;28;20007;-70
2022/09/17 09:03:23;;;;;;;;;;;19.00;55.20;;;;;;5106513;28;19931;-70
2022/09/17 09:05:51;;;;;;;;;;;19.00;55.10;;;;;;5106741;28;19943;-69
2022/09/17 09:11:02;;;;;;;;;;;19.10;55.20;;;;;;5125852;27;1857188;-69
2022/09/17 09:13:33;;;;;;;;;;;19.10;55.20;;;;;;5155343;27;19958;-72
2022/09/17 09:16:01;;;;;;;;;;;19.10;55.20;;;;;;5150173;27;19919;-71
2022/09/17 09:18:30;;;;;;;;;;;19.10;55.20;;;;;;5155458;27;19933;-68
2022/09/17 09:21:04;;;;;;;;;;;19.20;55.30;;;;;;5162207;27;20218;-67
2022/09/17 09:23:46;;;;;;;;;;;19.20;55.30;;;;;;5172983;27;20378;-71
2022/09/17 09:26:16;;;;;;;;;;;19.20;55.30;;;;;;5173656;27;19943;-69
2022/09/17 09:28:49;;;;;;;;;;;19.20;55.10;;;;;;5172535;27;20377;-72
2022/09/17 09:31:21;;;;;;;;;;;19.20;55.10;;;;;;5161030;27;20402;-67
2022/09/17 09:33:48;;;;;;;;;;;19.20;55.10;;;;;;5152113;27;19985;-68
2022/09/17 09:36:14;;;;;;;;;;;19.30;55.10;;;;;;5151541;27;19966;-68
2022/09/17 09:39:00;;;;;;;;;;;19.30;55.10;;;;;;5152881;27;19915;-67
2022/09/17 09:41:31;;;;;;;;;;;19.20;55.00;;;;;;5152634;27;20052;-66
2022/09/17 09:44:02;;;;;;;;;;;19.20;55.10;;;;;;5151890;27;19919;-67
2022/09/17 09:46:35;;;;;;;;;;;19.30;55.10;;;;;;5171611;27;19964;-66
2022/09/17 09:54:30;;;;;;;;;;;19.20;55.10;;;;;;5089846;28;19912;-68
2022/09/17 09:59:36;;;;;;;;;;;19.10;55.20;;;;;;5110667;27;19912;-67
2022/09/17 10:02:02;;;;;;;;;;;19.10;55.20;;;;;;5110204;28;20018;-67
2022/09/17 10:04:29;;;;;;;;;;;19.00;55.20;;;;;;5110122;28;19924;-67
2022/09/17 10:07:01;;;;;;;;;;;19.00;55.20;;;;;;5092018;28;19949;-67
2022/09/17 10:09:28;;;;;;;;;;;19.00;55.20;;;;;;5091866;28;19920;-67
2022/09/17 10:14:43;;;;;;;;;;;19.00;55.20;;;;;;5110218;27;19918;-68
2022/09/17 10:17:24;;;;;;;;;;;19.10;55.30;;;;;;5108886;28;19962;-67
2022/09/17 10:22:45;;;;;;;;;;;19.00;55.30;;;;;;5127435;27;1870790;-67
2022/09/17 10:25:30;;;;;;;;;;;19.00;55.30;;;;;;5174638;27;19922;-67
2022/09/17 10:27:57;;;;;;;;;;;19.00;55.30;;;;;;5174442;27;19961;-67
2022/09/17 10:30:24;;;;;;;;;;;19.00;55.30;;;;;;5174162;27;20001;-67
2022/09/17 10:33:10;;;;;;;;;;;19.00;55.30;;;;;;5174571;27;20374;-67
2022/09/17 10:35:35;;;;;;;;;;;19.00;55.30;;;;;;5173992;27;19915;-67
2022/09/17 10:38:01;;;;;;;;;;;19.00;55.40;;;;;;5193088;27;19942;-67
2022/09/17 10:40:28;;;;;;;;;;;18.90;55.30;;;;;;5174306;27;19924;-67
2022/09/17 10:43:15;;;;;;;;;;;18.90;55.30;;;;;;5174366;27;20001;-67
2022/09/17 10:45:43;;;;;;;;;;;18.90;55.30;;;;;;5174230;27;19999;-67
2022/09/17 10:48:14;;;;;;;;;;;18.90;55.30;;;;;;5174228;27;19922;-67
2022/09/17 10:50:40;;;;;;;;;;;18.90;55.40;;;;;;5174239;27;19919;-67
2022/09/17 10:53:14;;;;;;;;;;;18.90;55.40;;;;;;5192694;27;19942;-67
2022/09/17 10:55:43;;;;;;;;;;;18.90;55.40;;;;;;5192540;27;19925;-67
2022/09/17 10:58:28;;;;;;;;;;;18.90;55.40;;;;;;5192807;27;19923;-66
2022/09/17 11:01:01;;;;;;;;;;;18.90;55.40;;;;;;5173446;27;19971;-67
2022/09/17 11:03:47;;;;;;;;;;;18.90;55.40;;;;;;5192515;27;20009;-67
2022/09/17 11:06:20;;;;;;;;;;;18.90;55.40;;;;;;5192547;27;19971;-67
2022/09/17 11:14:32;;;;;;;;;;;18.90;55.40;;;;;;5089862;28;19912;-67
2022/09/17 11:17:03;;;;;;;;;;;18.80;55.30;;;;;;5088326;28;19916;-67
2022/09/17 11:19:37;;;;;;;;;;;18.80;55.40;;;;;;5088504;28;20438;-67
2022/09/17 11:27:59;;;;;;;;;;;18.90;55.40;;;;;;5110193;27;19912;-67
2022/09/17 11:30:28;;;;;;;;;;;18.80;55.40;;;;;;5109017;28;19920;-67
2022/09/17 11:33:13;;;;;;;;;;;18.80;55.40;;;;;;5109004;28;20271;-67
2022/09/17 11:35:43;;;;;;;;;;;18.80;55.40;;;;;;5108758;28;19920;-66
2022/09/17 11:38:11;;;;;;;;;;;18.80;55.40;;;;;;5108824;28;19916;-66
2022/09/17 11:40:57;;;;;;;;;;;18.80;55.40;;;;;;5110076;28;20318;-66
2022/09/17 11:43:25;;;;;;;;;;;18.80;55.40;;;;;;5109873;28;19920;-67
2022/09/17 11:45:56;;;;;;;;;;;18.90;55.40;;;;;;5108454;28;19930;-66
2022/09/17 11:48:26;;;;;;;;;;;18.80;55.30;;;;;;5108699;28;19977;-68
2022/09/17 11:50:56;;;;;;;;;;;18.80;55.40;;;;;;5108812;28;20357;-68
2022/09/17 11:53:41;;;;;;;;;;;18.80;55.30;;;;;;5108458;28;19920;-68
2022/09/17 11:58:52;;;;;;;;;;;18.80;55.30;;;;;;5089749;28;19912;-67
2022/09/17 12:01:38;;;;;;;;;;;18.80;55.30;;;;;;5089475;28;19927;-68
2022/09/17 12:07:07;;;;;;;;;;;18.80;55.30;;;;;;5089894;28;19916;-68
2022/09/17 12:09:35;;;;;;;;;;;18.80;55.30;;;;;;5072181;28;20015;-67
2022/09/17 12:12:06;;;;;;;;;;;18.80;55.30;;;;;;5068310;28;20395;-68
2022/09/17 12:14:49;;;;;;;;;;;18.80;55.30;;;;;;5068273;28;20020;-67
2022/09/17 12:17:21;;;;;;;;;;;18.80;55.40;;;;;;5085329;28;20340;-68
2022/09/17 12:19:48;;;;;;;;;;;18.80;56.20;;;;;;5068160;28;19970;-68
2022/09/17 12:22:31;;;;;;;;;;;18.80;55.40;;;;;;5068189;28;19921;-67
2022/09/17 12:24:57;;;;;;;;;;;18.80;55.40;;;;;;5069205;28;19968;-67
2022/09/17 12:30:20;;;;;;;;;;;18.80;56.10;;;;;;5089774;28;20384;-67
2022/09/17 12:36:01;;;;;;;;;;;18.80;55.40;;;;;;5089831;28;19913;-69
2022/09/17 12:41:18;;;;;;;;;;;18.80;55.40;;;;;;5089869;28;19913;-67
2022/09/17 12:49:18;;;;;;;;;;;18.80;55.40;;;;;;5089887;28;19913;-66
2022/09/17 12:54:33;;;;;;;;;;;18.80;55.40;;;;;;5109430;27;19912;-66
2022/09/17 12:59:59;;;;;;;;;;;18.70;55.30;;;;;;5089617;28;20451;-66
2022/09/17 13:02:29;;;;;;;;;;;18.80;55.30;;;;;;5088429;28;19920;-66
2022/09/17 13:05:14;;;;;;;;;;;18.80;55.40;;;;;;5088658;28;19920;-66
2022/09/17 13:08:00;;;;;;;;;;;18.70;55.30;;;;;;5087970;28;19982;-69
2022/09/17 13:16:08;;;;;;;;;;;18.80;55.30;;;;;;5110121;27;19912;-67
2022/09/17 13:21:36;;;;;;;;;;;18.80;55.30;;;;;;5130738;27;20529;-67
2022/09/17 13:24:13;;;;;;;;;;;18.70;55.20;;;;;;5129506;28;19915;-67
2022/09/17 13:26:38;;;;;;;;;;;18.80;55.30;;;;;;5129322;28;19968;-68
2022/09/17 13:29:08;;;;;;;;;;;18.70;55.20;;;;;;5129402;28;19919;-67
2022/09/17 13:36:58;;;;;;;;;;;18.70;55.10;;;;;;5090195;28;19912;-67
2022/09/17 13:42:23;;;;;;;;;;;18.70;55.80;;;;;;5089888;28;19940;-67
2022/09/17 13:44:51;;;;;;;;;;;18.80;55.10;;;;;;5088909;28;19920;-67
2022/09/17 13:47:18;;;;;;;;;;;18.80;55.20;;;;;;5088360;28;19921;-66
2022/09/17 13:49:46;;;;;;;;;;;18.80;55.20;;;;;;5088694;28;19989;-67
2022/09/17 13:52:11;;;;;;;;;;;18.80;55.20;;;;;;5105381;28;19927;-67
2022/09/17 13:54:37;;;;;;;;;;;18.80;55.20;;;;;;5088475;28;19921;-66
2022/09/17 13:57:08;;;;;;;;;;;18.80;55.20;;;;;;5088600;28;19982;-68
2022/09/17 13:59:35;;;;;;;;;;;18.80;55.20;;;;;;5089631;28;20406;-67
2022/09/17 14:02:21;;;;;;;;;;;18.70;55.10;;;;;;5089471;28;19927;-66
2022/09/17 14:04:47;;;;;;;;;;;18.80;55.20;;;;;;5089438;28;19916;-67
2022/09/17 14:10:01;;;;;;;;;;;18.80;55.10;;;;;;5090008;28;19931;-70
2022/09/17 14:18:33;;;;;;;;;;;18.80;55.10;;;;;;5089910;28;19908;-68
2022/09/17 14:21:19;;;;;;;;;;;18.70;55.00;;;;;;5089948;28;19990;-66
2022/09/17 14:23:46;;;;;;;;;;;18.70;55.00;;;;;;5088215;28;19924;-66
2022/09/17 14:26:18;;;;;;;;;;;18.80;55.00;;;;;;5089841;28;19939;-67
2022/09/17 14:28:48;;;;;;;;;;;18.70;54.90;;;;;;5088331;28;19947;-66
2022/09/17 14:31:17;;;;;;;;;;;18.80;54.90;;;;;;5088245;28;20277;-66
2022/09/17 14:33:43;;;;;;;;;;;18.80;54.90;;;;;;5088189;28;19917;-67
2022/09/17 14:36:10;;;;;;;;;;;18.70;54.80;;;;;;5088374;28;19932;-66
2022/09/17 14:41:20;;;;;;;;;;;18.80;54.90;;;;;;5089986;28;19937;-69
2022/09/17 14:43:51;;;;;;;;;;;18.80;54.80;;;;;;5088589;28;19920;-67
2022/09/17 14:46:21;;;;;;;;;;;18.70;54.80;;;;;;5088798;28;20370;-67
2022/09/17 14:48:47;;;;;;;;;;;18.70;54.80;;;;;;5088357;28;19969;-67
2022/09/17 14:56:47;;;;;;;;;;;18.70;54.80;;;;;;5089905;28;19918;-66
2022/09/17 14:59:19;;;;;;;;;;;18.70;54.80;;;;;;5088744;28;19920;-66
2022/09/17 15:01:46;;;;;;;;;;;18.70;54.80;;;;;;5088836;28;20373;-66
2022/09/17 15:06:51;;;;;;;;;;;18.70;54.80;;;;;;5131825;27;1853470;-66
2022/09/17 15:09:18;;;;;;;;;;;18.70;54.80;;;;;;5174601;27;19925;-66
2022/09/17 15:11:46;;;;;;;;;;;18.70;54.80;;;;;;5174490;27;19918;-66
2022/09/17 15:14:16;;;;;;;;;;;18.60;54.80;;;;;;5174226;27;19966;-67
2022/09/17 15:16:50;;;;;;;;;;;18.70;54.90;;;;;;5193120;27;20377;-66
2022/09/17 15:19:21;;;;;;;;;;;18.60;54.80;;;;;;5174566;27;19921;-66
2022/09/17 15:21:48;;;;;;;;;;;18.70;54.90;;;;;;5174328;27;19915;-66
2022/09/17 15:24:34;;;;;;;;;;;18.60;54.80;;;;;;5174582;27;19921;-66
2022/09/17 15:27:04;;;;;;;;;;;18.70;54.90;;;;;;5173885;27;20414;-66
2022/09/17 15:29:32;;;;;;;;;;;18.60;54.80;;;;;;5192810;27;19926;-67
2022/09/17 15:31:57;;;;;;;;;;;18.60;54.80;;;;;;5174209;27;19944;-67
2022/09/17 15:34:23;;;;;;;;;;;18.60;54.80;;;;;;5192832;27;19919;-66
2022/09/17 15:37:08;;;;;;;;;;;18.60;54.80;;;;;;5173591;27;19918;-67
2022/09/17 15:39:38;;;;;;;;;;;18.60;54.80;;;;;;5173746;27;19926;-66
2022/09/17 15:42:04;;;;;;;;;;;18.60;54.80;;;;;;5173958;27;19918;-67
2022/09/17 15:44:29;;;;;;;;;;;18.70;54.90;;;;;;5173704;27;20319;-67
2022/09/17 15:47:16;;;;;;;;;;;18.70;54.90;;;;;;5173910;27;20005;-66
2022/09/17 15:49:41;;;;;;;;;;;18.70;54.90;;;;;;5173601;27;19918;-66
2022/09/17 15:52:28;;;;;;;;;;;18.70;54.90;;;;;;5173547;27;19914;-66
2022/09/17 15:54:54;;;;;;;;;;;18.60;54.80;;;;;;5192310;27;20361;-67
2022/09/17 15:57:20;;;;;;;;;;;18.60;54.80;;;;;;5173413;27;19967;-66
2022/09/17 15:59:46;;;;;;;;;;;18.60;54.80;;;;;;5173358;27;19921;-66
2022/09/17 16:02:23;;;;;;;;;;;18.60;54.80;;;;;;5173387;27;19915;-66
2022/09/17 16:04:54;;;;;;;;;;;18.60;54.80;;;;;;5173581;27;19982;-66
2022/09/17 16:07:25;;;;;;;;;;;18.60;54.90;;;;;;5191809;27;19926;-66
2022/09/17 16:09:52;;;;;;;;;;;18.60;54.90;;;;;;5173365;27;20005;-66
2022/09/17 16:12:18;;;;;;;;;;;18.60;54.90;;;;;;5191888;27;19925;-67
2022/09/17 16:14:45;;;;;;;;;;;18.60;54.90;;;;;;5192235;27;19919;-66
2022/09/17 16:22:56;;;;;;;;;;;18.60;54.90;;;;;;5089839;28;19908;-66
2022/09/17 16:25:23;;;;;;;;;;;18.60;55.00;;;;;;5088824;28;20245;-66
2022/09/17 16:30:29;;;;;;;;;;;18.60;55.00;;;;;;5110244;27;20299;-66
2022/09/17 16:32:54;;;;;;;;;;;18.60;55.00;;;;;;5109138;28;19920;-66
2022/09/17 16:35:21;;;;;;;;;;;18.50;55.00;;;;;;5110161;28;19920;-66
2022/09/17 16:37:47;;;;;;;;;;;18.60;55.10;;;;;;5108997;28;19920;-67